createdAt,value
2019-02-24T00:01:15.224Z,76.71
2019-02-24T00:03:48.857Z,76.89
2019-02-24T00:06:22.153Z,76.89
2019-02-24T00:08:55.864Z,77.14
2019-02-24T00:11:28.459Z,77.34
2019-02-24T00:14:03.037Z,77.51
2019-02-24T00:16:32.360Z,77.70
2019-02-24T00:19:03.833Z,78.33
2019-02-24T00:21:36.982Z,78.15
2019-02-24T00:24:09.174Z,78.33
2019-02-24T00:26:38.291Z,78.08
2019-02-24T00:29:08.617Z,77.70
2019-02-24T00:31:42.956Z,78.02
2019-02-24T00:34:13.624Z,78.33
2019-02-24T00:36:47.500Z,79.00
2019-02-24T00:39:16.213Z,78.92
2019-02-24T00:41:46.912Z,79.00
2019-02-24T00:44:18.685Z,79.27
2019-02-24T00:46:51.021Z,79.40
2019-02-24T00:49:21.566Z,79.15
2019-02-24T00:51:56.000Z,79.10
2019-02-24T00:54:26.167Z,78.66
2019-02-24T00:56:58.762Z,78.83
2019-02-24T00:59:32.037Z,79.00
2019-02-24T01:02:05.162Z,79.55
2019-02-24T01:04:39.081Z,79.42
2019-02-24T01:07:10.031Z,79.17
2019-02-24T01:09:40.246Z,79.11
2019-02-24T01:12:15.772Z,79.08
2019-02-24T01:14:49.431Z,79.23
2019-02-24T01:17:20.204Z,79.64
2019-02-24T01:19:52.051Z,80.25
2019-02-24T01:22:22.173Z,80.22
2019-02-24T01:24:54.931Z,79.86
2019-02-24T01:27:28.210Z,80.66
2019-02-24T01:30:01.032Z,82.05
2019-02-24T01:32:36.861Z,82.72
2019-02-24T01:35:10.548Z,82.88
2019-02-24T01:37:39.955Z,82.00
2019-02-24T01:40:13.724Z,81.85
2019-02-24T01:42:45.410Z,81.72
2019-02-24T01:45:20.444Z,81.86
2019-02-24T01:47:49.872Z,81.81
2019-02-24T01:50:20.505Z,82.19
2019-02-24T01:52:50.946Z,82.40
2019-02-24T01:55:22.741Z,81.97
2019-02-24T01:57:54.742Z,81.70
2019-02-24T02:00:30.889Z,81.35
2019-02-24T02:03:00.008Z,81.40
2019-02-24T02:05:30.504Z,80.98
2019-02-24T02:07:59.271Z,80.73
2019-02-24T02:10:27.999Z,81.16
2019-02-24T02:12:57.491Z,81.39
2019-02-24T02:15:29.783Z,81.46
2019-02-24T02:18:01.707Z,81.38
2019-02-24T02:20:33.791Z,81.37
2019-02-24T02:23:05.693Z,81.50
2019-02-24T02:25:38.456Z,81.24
2019-02-24T02:28:07.438Z,81.90
2019-02-24T02:30:36.826Z,81.60
2019-02-24T02:33:08.782Z,81.63
2019-02-24T02:35:38.007Z,81.45
2019-02-24T02:38:10.364Z,81.66
2019-02-24T02:40:39.107Z,81.44
2019-02-24T02:43:09.578Z,81.31
2019-02-24T02:45:43.292Z,81.51
2019-02-24T02:48:11.852Z,81.76
2019-02-24T02:50:43.078Z,81.63
2019-02-24T02:53:16.307Z,81.41
2019-02-24T02:55:51.056Z,81.82
2019-02-24T02:58:23.424Z,81.93
2019-02-24T03:00:54.162Z,80.92
2019-02-24T03:03:43.839Z,80.28
2019-02-24T03:06:26.542Z,80.41
2019-02-24T03:09:00.101Z,80.33
2019-02-24T03:11:32.555Z,80.66
2019-02-24T03:14:02.781Z,80.91
2019-02-24T03:16:37.851Z,80.59
2019-02-24T03:19:11.832Z,80.11
2019-02-24T03:21:45.733Z,79.49
2019-02-24T03:24:14.896Z,79.24
2019-02-24T03:26:45.727Z,79.30
2019-02-24T03:29:21.361Z,80.03
2019-02-24T03:31:50.081Z,80.05
2019-02-24T03:34:23.666Z,80.38
2019-02-24T03:36:52.518Z,80.71
2019-02-24T03:39:21.770Z,80.66
2019-02-24T03:41:52.193Z,80.45
2019-02-24T03:44:20.731Z,80.66
2019-02-24T03:46:54.724Z,80.58
2019-02-24T03:49:29.511Z,80.92
2019-02-24T03:51:59.645Z,80.91
2019-02-24T03:54:31.181Z,80.78
2019-02-24T03:57:04.621Z,80.50
2019-02-24T03:59:32.961Z,80.76
2019-02-24T04:02:05.353Z,80.80
2019-02-24T04:04:34.847Z,81.55
2019-02-24T04:07:03.632Z,81.54
2019-02-24T04:09:34.021Z,82.34
2019-02-24T04:12:06.687Z,82.06
2019-02-24T04:14:40.547Z,82.14
2019-02-24T04:17:11.279Z,81.90
2019-02-24T04:19:42.330Z,81.75
2019-02-24T04:22:11.412Z,81.55
2019-02-24T04:24:43.114Z,81.24
2019-02-24T04:27:12.073Z,80.90
2019-02-24T04:29:43.384Z,80.59
2019-02-24T04:32:13.318Z,80.56
2019-02-24T04:34:42.208Z,80.65
2019-02-24T04:37:12.802Z,81.03
2019-02-24T04:39:49.695Z,81.23
2019-02-24T04:42:20.103Z,81.28
2019-02-24T04:44:53.269Z,81.64
2019-02-24T04:47:22.479Z,81.19
2019-02-24T04:49:52.507Z,80.72
2019-02-24T04:52:24.630Z,80.57
2019-02-24T04:55:02.848Z,80.38
2019-02-24T04:57:36.467Z,80.17
2019-02-24T05:00:09.949Z,80.37
2019-02-24T05:02:44.535Z,80.41
2019-02-24T05:05:13.775Z,80.50
2019-02-24T05:07:43.303Z,80.32
2019-02-24T05:10:15.820Z,80.30
2019-02-24T05:12:50.062Z,80.15
2019-02-24T05:15:23.701Z,80.34
2019-02-24T05:17:53.261Z,80.68
2019-02-24T05:20:26.690Z,81.02
2019-02-24T05:22:54.806Z,80.90
2019-02-24T05:25:27.010Z,81.36
2019-02-24T05:27:59.960Z,81.70
2019-02-24T05:30:28.915Z,81.67
2019-02-24T05:32:59.301Z,81.99
2019-02-24T05:35:33.529Z,81.44
2019-02-24T05:38:03.757Z,81.58
2019-02-24T05:40:35.031Z,82.08
2019-02-24T05:43:05.254Z,82.37
2019-02-24T05:45:36.347Z,82.61
2019-02-24T05:48:09.200Z,82.32
2019-02-24T05:50:41.323Z,81.95
2019-02-24T05:53:11.900Z,81.79
2019-02-24T05:55:44.779Z,81.46
2019-02-24T05:58:17.805Z,81.36
2019-02-24T06:00:50.320Z,81.16
2019-02-24T06:03:21.531Z,81.32
2019-02-24T06:05:50.657Z,81.89
2019-02-24T06:08:22.659Z,81.81
2019-02-24T06:10:51.632Z,81.47
2019-02-24T06:13:20.680Z,81.34
2019-02-24T06:15:50.784Z,81.64
2019-02-24T06:18:20.274Z,81.37
2019-02-24T06:20:58.657Z,81.29
2019-02-24T06:23:29.108Z,80.75
2019-02-24T06:26:01.040Z,80.87
2019-02-24T06:28:29.669Z,81.22
2019-02-24T06:31:01.831Z,81.41
2019-02-24T06:33:31.192Z,82.79
2019-02-24T06:36:02.893Z,82.83
2019-02-24T06:38:31.870Z,82.96
2019-02-24T06:41:05.507Z,82.97
2019-02-24T06:43:36.098Z,82.92
2019-02-24T06:46:06.884Z,82.89
2019-02-24T06:48:37.697Z,82.69
2019-02-24T06:51:14.087Z,82.59
2019-02-24T06:53:47.783Z,82.34
2019-02-24T06:56:17.038Z,82.14
2019-02-24T06:58:45.940Z,82.13
2019-02-24T07:01:16.243Z,82.03
2019-02-24T07:03:45.703Z,81.99
2019-02-24T07:06:19.558Z,81.23
2019-02-24T07:08:53.578Z,81.00
2019-02-24T07:11:22.685Z,81.10
2019-02-24T07:13:55.167Z,81.29
2019-02-24T07:16:26.399Z,80.96
2019-02-24T07:18:58.597Z,80.46
2019-02-24T07:21:31.664Z,80.07
2019-02-24T07:24:04.531Z,79.94
2019-02-24T07:26:34.649Z,80.10
2019-02-24T07:29:08.712Z,79.54
2019-02-24T07:31:43.454Z,79.23
2019-02-24T07:34:13.096Z,78.87
2019-02-24T07:36:43.851Z,78.25
2019-02-24T07:39:15.627Z,77.90
2019-02-24T07:41:46.866Z,77.72
2019-02-24T07:44:16.060Z,77.49
2019-02-24T07:46:48.021Z,76.91
2019-02-24T07:49:17.299Z,77.58
2019-02-24T07:51:47.319Z,78.23
2019-02-24T07:54:22.646Z,76.82
2019-02-24T07:56:54.697Z,76.42
2019-02-24T07:59:29.868Z,75.74
2019-02-24T08:01:58.767Z,75.04
2019-02-24T08:04:27.699Z,75.25
2019-02-24T08:07:00.238Z,73.87
2019-02-24T08:09:30.966Z,72.58
2019-02-24T08:12:12.467Z,72.25
2019-02-24T08:14:46.382Z,70.79
2019-02-24T08:17:28.038Z,70.30
2019-02-24T08:20:00.522Z,69.64
2019-02-24T08:22:33.010Z,69.20
2019-02-24T08:25:08.190Z,68.80
2019-02-24T08:27:39.272Z,68.51
2019-02-24T08:30:09.090Z,67.43
2019-02-24T08:32:39.919Z,66.96
2019-02-24T08:35:13.877Z,66.57
2019-02-24T08:38:06.595Z,66.37
2019-02-24T08:40:36.726Z,65.31
2019-02-24T08:43:10.718Z,65.44
2019-02-24T08:45:39.970Z,65.70
2019-02-24T08:48:13.175Z,63.87
2019-02-24T08:50:46.838Z,63.21
2019-02-24T08:53:18.747Z,62.00
2019-02-24T08:55:49.066Z,62.23
2019-02-24T08:58:29.025Z,62.15
2019-02-24T09:01:01.249Z,61.22
2019-02-24T09:03:33.617Z,62.70
2019-02-24T09:06:04.838Z,61.34
2019-02-24T09:08:44.852Z,59.94
2019-02-24T09:11:19.384Z,60.52
2019-02-24T09:13:49.859Z,59.00
2019-02-24T09:16:24.261Z,58.30
2019-02-24T09:18:54.707Z,57.35
2019-02-24T09:21:24.999Z,55.80
2019-02-24T09:23:57.030Z,54.36
2019-02-24T09:26:28.937Z,53.75
2019-02-24T09:29:00.795Z,54.44
2019-02-24T09:31:37.136Z,54.57
2019-02-24T09:34:05.709Z,54.09
2019-02-24T09:36:39.273Z,53.88
2019-02-24T09:39:14.599Z,53.18
2019-02-24T09:41:52.261Z,52.58
2019-02-24T09:44:22.621Z,51.05
2019-02-24T09:46:56.575Z,49.55
2019-02-24T09:49:27.047Z,50.83
2019-02-24T09:51:56.093Z,49.68
2019-02-24T09:54:24.821Z,48.94
2019-02-24T09:56:58.397Z,49.00
2019-02-24T09:59:33.697Z,47.78
2019-02-24T10:02:06.531Z,48.89
2019-02-24T10:04:41.581Z,48.53
2019-02-24T10:07:10.319Z,47.71
2019-02-24T10:09:41.129Z,45.29
2019-02-24T10:12:11.969Z,45.69
2019-02-24T10:14:41.894Z,45.96
2019-02-24T10:17:18.450Z,44.39
2019-02-24T10:19:49.121Z,43.02
2019-02-24T10:22:20.231Z,42.80
2019-02-24T10:24:50.464Z,42.02
2019-02-24T10:27:24.491Z,40.96
2019-02-24T10:29:56.633Z,40.31
2019-02-24T10:32:27.476Z,40.00
2019-02-24T10:35:02.684Z,39.92
2019-02-24T10:37:32.632Z,39.17
2019-02-24T10:40:04.979Z,40.33
2019-02-24T10:42:35.383Z,39.62
2019-02-24T10:45:06.292Z,39.18
2019-02-24T10:47:39.490Z,39.20
2019-02-24T10:50:12.129Z,39.14
2019-02-24T10:52:41.460Z,38.39
2019-02-24T10:55:13.540Z,38.29
2019-02-24T10:57:44.398Z,37.94
2019-02-24T11:00:19.162Z,36.73
2019-02-24T11:02:47.974Z,36.73
2019-02-24T11:05:17.464Z,37.39
2019-02-24T11:07:46.195Z,37.59
2019-02-24T11:10:22.118Z,37.36
2019-02-24T11:12:51.326Z,36.89
2019-02-24T11:15:20.713Z,35.43
2019-02-24T11:17:51.245Z,35.43
2019-02-24T11:20:21.176Z,35.33
2019-02-24T11:22:57.801Z,35.05
2019-02-24T11:25:30.300Z,35.05
2019-02-24T11:27:59.195Z,36.00
2019-02-24T11:30:29.639Z,34.72
2019-02-24T11:32:58.191Z,34.71
2019-02-24T11:35:30.161Z,34.51
2019-02-24T11:38:06.439Z,34.33
2019-02-24T11:40:35.368Z,35.16
2019-02-24T11:43:04.474Z,34.78
2019-02-24T11:45:35.299Z,35.64
2019-02-24T11:48:05.239Z,34.75
2019-02-24T11:50:43.200Z,35.29
2019-02-24T11:53:15.195Z,35.71
2019-02-24T11:55:45.848Z,35.32
2019-02-24T11:58:14.595Z,35.17
2019-02-24T12:00:43.127Z,34.89
2019-02-24T12:03:12.138Z,34.52
2019-02-24T12:05:40.689Z,34.79
2019-02-24T12:08:11.318Z,33.83
2019-02-24T12:10:40.187Z,33.83
2019-02-24T12:13:11.020Z,34.38
2019-02-24T12:15:41.455Z,33.89
2019-02-24T12:18:12.175Z,32.75
2019-02-24T12:20:41.245Z,33.22
2019-02-24T12:23:14.621Z,32.74
2019-02-24T12:25:43.565Z,34.28
2019-02-24T12:28:13.124Z,33.26
2019-02-24T12:30:48.672Z,33.98
2019-02-24T12:33:16.868Z,31.78
2019-02-24T12:35:50.657Z,31.00
2019-02-24T12:38:20.741Z,31.86
2019-02-24T12:40:50.975Z,32.47
2019-02-24T12:43:20.130Z,31.11
2019-02-24T12:45:50.308Z,31.06
2019-02-24T12:48:20.509Z,29.77
2019-02-24T12:50:51.053Z,31.75
2019-02-24T12:53:21.589Z,31.36
2019-02-24T12:55:51.875Z,31.48
2019-02-24T12:58:26.974Z,30.44
2019-02-24T13:00:57.766Z,30.35
2019-02-24T13:03:26.645Z,30.12
2019-02-24T13:05:55.559Z,29.73
2019-02-24T13:08:27.884Z,30.04
2019-02-24T13:10:58.108Z,30.09
2019-02-24T13:13:27.100Z,28.32
2019-02-24T13:16:02.222Z,28.85
2019-02-24T13:18:37.381Z,29.36
2019-02-24T13:21:09.567Z,29.14
2019-02-24T13:23:39.949Z,29.39
2019-02-24T13:26:08.864Z,29.04
2019-02-24T13:28:50.095Z,29.50
2019-02-24T13:31:13.602Z,29.14
2019-02-24T13:33:42.515Z,28.24
2019-02-24T13:36:13.977Z,28.04
2019-02-24T13:38:44.369Z,28.25
2019-02-24T13:41:12.930Z,29.68
2019-02-24T13:43:41.448Z,28.46
2019-02-24T13:46:10.834Z,28.43
2019-02-24T13:48:42.705Z,27.97
2019-02-24T13:51:14.157Z,27.78
2019-02-24T13:53:42.869Z,27.19
2019-02-24T13:56:14.296Z,27.27
2019-02-24T13:58:45.014Z,26.30
2019-02-24T14:01:18.794Z,25.08
2019-02-24T14:03:46.574Z,24.61
2019-02-24T14:06:20.794Z,24.02
2019-02-24T14:08:49.702Z,23.01
2019-02-24T14:11:22.210Z,21.93
2019-02-24T14:13:51.173Z,22.64
2019-02-24T14:16:23.024Z,20.70
2019-02-24T14:18:52.264Z,20.05
2019-02-24T14:21:25.033Z,20.22
2019-02-24T14:23:56.992Z,20.32
2019-02-24T14:26:29.689Z,20.43
2019-02-24T14:29:02.665Z,20.73
2019-02-24T14:31:36.364Z,20.65
2019-02-24T14:34:06.880Z,19.91
2019-02-24T14:36:35.732Z,20.49
2019-02-24T14:39:05.003Z,21.66
2019-02-24T14:41:35.737Z,19.23
2019-02-24T14:44:10.549Z,21.02
2019-02-24T14:46:42.026Z,20.59
2019-02-24T14:49:10.993Z,18.61
2019-02-24T14:51:42.255Z,18.73
2019-02-24T14:54:12.148Z,17.68
2019-02-24T14:56:41.074Z,18.63
2019-02-24T14:59:12.249Z,20.25
2019-02-24T15:01:44.073Z,18.32
2019-02-24T15:04:12.979Z,19.22
2019-02-24T15:06:41.840Z,19.29
2019-02-24T15:09:12.369Z,20.81
2019-02-24T15:11:41.153Z,21.43
2019-02-24T15:14:11.466Z,21.53
2019-02-24T15:16:42.060Z,21.78
2019-02-24T15:19:12.856Z,21.92
2019-02-24T15:21:43.108Z,23.10
2019-02-24T15:24:11.955Z,26.15
2019-02-24T15:26:42.255Z,29.42
2019-02-24T15:29:17.595Z,30.15
2019-02-24T15:31:49.463Z,30.35
2019-02-24T15:34:18.895Z,29.08
2019-02-24T15:36:48.312Z,29.04
2019-02-24T15:39:24.775Z,28.79
2019-02-24T15:41:53.345Z,28.94
2019-02-24T15:44:22.896Z,29.45
2019-02-24T15:46:53.191Z,28.83
2019-02-24T15:49:21.740Z,29.25
2019-02-24T15:51:53.937Z,29.57
2019-02-24T15:54:22.829Z,29.93
2019-02-24T15:56:53.505Z,30.78
2019-02-24T15:59:27.353Z,31.64
2019-02-24T16:01:58.124Z,31.16
2019-02-24T16:04:29.061Z,31.71
2019-02-24T16:07:01.352Z,32.25
2019-02-24T16:09:34.543Z,32.23
2019-02-24T16:12:03.470Z,32.61
2019-02-24T16:14:36.954Z,35.54
2019-02-24T16:17:05.517Z,36.06
2019-02-24T16:19:41.882Z,35.90
2019-02-24T16:22:17.005Z,37.25
2019-02-24T16:24:47.259Z,36.66
2019-02-24T16:27:19.521Z,35.31
2019-02-24T16:29:50.132Z,36.68
2019-02-24T16:32:21.616Z,37.22
2019-02-24T16:34:50.833Z,38.88
2019-02-24T16:37:24.564Z,39.68
2019-02-24T16:39:53.323Z,42.07
2019-02-24T16:42:25.090Z,43.80
2019-02-24T16:44:57.617Z,45.06
2019-02-24T16:47:28.109Z,45.58
2019-02-24T16:49:59.049Z,46.45
2019-02-24T16:52:27.606Z,45.63
2019-02-24T16:55:01.284Z,45.63
2019-02-24T16:57:29.635Z,46.45
2019-02-24T17:00:07.215Z,46.87
2019-02-24T17:02:37.517Z,47.06
2019-02-24T17:05:12.038Z,46.61
2019-02-24T17:07:43.035Z,46.46
2019-02-24T17:10:13.011Z,46.21
2019-02-24T17:12:44.369Z,46.03
2019-02-24T17:15:16.946Z,46.19
2019-02-24T17:17:49.996Z,46.40
2019-02-24T17:20:21.397Z,45.14
2019-02-24T17:22:53.870Z,44.30
2019-02-24T17:25:23.981Z,44.81
2019-02-24T17:28:06.300Z,45.56
2019-02-24T17:30:35.063Z,46.44
2019-02-24T17:33:07.206Z,48.46
2019-02-24T17:35:42.566Z,48.99
2019-02-24T17:38:15.261Z,48.72
2019-02-24T17:40:45.994Z,49.13
2019-02-24T17:43:14.974Z,49.16
2019-02-24T17:45:48.798Z,48.36
2019-02-24T17:48:22.432Z,48.63
2019-02-24T17:50:51.281Z,50.45
2019-02-24T17:53:24.085Z,48.83
2019-02-24T17:55:53.478Z,49.00
2019-02-24T17:58:22.287Z,51.13
2019-02-24T18:00:59.540Z,52.43
2019-02-24T18:03:39.030Z,52.87
2019-02-24T18:06:06.640Z,52.37
2019-02-24T18:08:35.582Z,52.09
2019-02-24T18:11:05.147Z,52.24
2019-02-24T18:13:35.078Z,52.32
2019-02-24T18:16:06.019Z,52.32
2019-02-24T18:18:36.938Z,52.99
2019-02-24T18:21:08.640Z,54.06
2019-02-24T18:23:40.332Z,55.02
2019-02-24T18:26:14.692Z,55.54
2019-02-24T18:28:46.087Z,57.61
2019-02-24T18:31:20.769Z,56.76
2019-02-24T18:33:52.841Z,58.15
2019-02-24T18:36:23.775Z,57.32
2019-02-24T18:38:55.444Z,55.60
2019-02-24T18:41:30.043Z,53.88
2019-02-24T18:44:01.769Z,54.66
2019-02-24T18:46:31.021Z,54.45
2019-02-24T18:49:01.254Z,55.38
2019-02-24T18:51:33.657Z,56.25
2019-02-24T18:54:02.343Z,58.34
2019-02-24T18:56:36.015Z,59.62
2019-02-24T18:59:04.899Z,59.73
2019-02-24T19:01:38.558Z,60.13
2019-02-24T19:04:12.267Z,59.86
2019-02-24T19:06:40.779Z,60.59
2019-02-24T19:09:17.224Z,61.23
2019-02-24T19:11:50.367Z,60.76
2019-02-24T19:14:27.165Z,60.70
2019-02-24T19:16:58.280Z,60.55
2019-02-24T19:19:28.651Z,60.07
2019-02-24T19:21:59.219Z,60.27
2019-02-24T19:24:30.696Z,60.78
2019-02-24T19:26:59.764Z,61.38
2019-02-24T19:29:32.253Z,61.37
2019-02-24T19:32:00.964Z,61.66
2019-02-24T19:34:31.199Z,61.97
2019-02-24T19:37:01.928Z,62.42
2019-02-24T19:39:32.245Z,62.36
2019-02-24T19:42:06.454Z,62.23
2019-02-24T19:44:39.964Z,62.15
2019-02-24T19:47:09.451Z,62.39
2019-02-24T19:49:38.358Z,63.47
2019-02-24T19:52:07.322Z,64.25
2019-02-24T19:54:37.771Z,64.54
2019-02-24T19:57:11.678Z,64.44
2019-02-24T19:59:40.907Z,64.95
2019-02-24T20:02:12.412Z,65.45
2019-02-24T20:04:43.000Z,65.60
2019-02-24T20:07:14.001Z,66.11
2019-02-24T20:09:43.563Z,67.50
2019-02-24T20:12:15.668Z,67.57
2019-02-24T20:14:47.923Z,67.46
2019-02-24T20:17:19.825Z,67.33
2019-02-24T20:19:50.605Z,66.93
2019-02-24T20:22:21.295Z,66.73
2019-02-24T20:24:53.093Z,66.43
2019-02-24T20:27:22.197Z,66.02
2019-02-24T20:29:54.463Z,66.19
2019-02-24T20:32:24.780Z,66.29
2019-02-24T20:34:53.891Z,65.66
2019-02-24T20:37:22.435Z,65.10
2019-02-24T20:39:50.969Z,64.44
2019-02-24T20:42:19.838Z,64.34
2019-02-24T20:44:53.803Z,64.20
2019-02-24T20:47:25.800Z,64.44
2019-02-24T20:49:57.500Z,64.75
2019-02-24T20:52:27.857Z,64.78
2019-02-24T20:54:58.743Z,65.05
2019-02-24T20:57:27.499Z,65.31
2019-02-24T20:59:59.434Z,66.15
2019-02-24T21:02:31.706Z,67.28
2019-02-24T21:05:02.211Z,68.09
2019-02-24T21:07:32.661Z,68.71
2019-02-24T21:10:10.109Z,68.84
2019-02-24T21:12:44.865Z,69.21
2019-02-24T21:15:16.958Z,69.39
2019-02-24T21:17:47.467Z,70.08
2019-02-24T21:20:25.101Z,70.54
2019-02-24T21:22:58.335Z,70.76
2019-02-24T21:25:30.678Z,71.18
2019-02-24T21:28:02.606Z,71.81
2019-02-24T21:30:39.870Z,71.42
2019-02-24T21:33:12.186Z,71.25
2019-02-24T21:35:42.893Z,71.34
2019-02-24T21:38:15.363Z,71.16
2019-02-24T21:40:47.482Z,70.98
2019-02-24T21:43:19.883Z,70.75
2019-02-24T21:45:51.889Z,71.43
2019-02-24T21:48:27.098Z,71.43
2019-02-24T21:50:56.363Z,71.32
2019-02-24T21:53:25.204Z,71.54
2019-02-24T21:55:59.298Z,71.53
2019-02-24T21:58:30.258Z,71.59
2019-02-24T22:01:02.539Z,71.93
2019-02-24T22:03:31.424Z,72.75
2019-02-24T22:06:03.622Z,73.04
2019-02-24T22:08:39.486Z,72.39
2019-02-24T22:11:14.819Z,73.06
2019-02-24T22:13:47.537Z,72.78
2019-02-24T22:16:17.774Z,72.31
2019-02-24T22:19:07.212Z,72.29
2019-02-24T22:21:37.493Z,72.63
2019-02-24T22:24:10.360Z,72.47
2019-02-24T22:26:46.903Z,72.48
2019-02-24T22:29:15.681Z,72.22
2019-02-24T22:31:49.741Z,72.27
2019-02-24T22:34:22.400Z,72.05
2019-02-24T22:36:54.717Z,71.97
2019-02-24T22:39:29.570Z,71.93
2019-02-24T22:42:03.446Z,71.66
2019-02-24T22:44:37.641Z,71.68
2019-02-24T22:47:06.549Z,71.67
2019-02-24T22:49:42.277Z,71.31
2019-02-24T22:52:11.199Z,71.31
2019-02-24T22:54:41.903Z,71.57
2019-02-24T22:57:13.883Z,71.54
2019-02-24T22:59:45.393Z,72.09
2019-02-24T23:02:15.064Z,72.28
2019-02-24T23:04:44.050Z,72.80
2019-02-24T23:07:17.121Z,73.19
2019-02-24T23:09:49.201Z,73.44
2019-02-24T23:12:22.545Z,73.77
2019-02-24T23:14:51.984Z,73.97
2019-02-24T23:17:27.479Z,74.15
2019-02-24T23:19:58.362Z,74.00
2019-02-24T23:22:37.871Z,74.37
2019-02-24T23:25:10.491Z,74.58
2019-02-24T23:27:40.225Z,74.43
2019-02-24T23:30:19.818Z,74.83
2019-02-24T23:32:53.080Z,75.00
2019-02-24T23:35:27.336Z,75.59
2019-02-24T23:38:01.889Z,75.15
2019-02-24T23:40:37.648Z,75.04
2019-02-24T23:43:13.079Z,75.67
2019-02-24T23:45:45.259Z,76.15
2019-02-24T23:48:17.747Z,75.99
2019-02-24T23:50:52.687Z,76.21
2019-02-24T23:53:23.609Z,76.14
2019-02-24T23:55:55.463Z,75.75
2019-02-24T23:58:27.622Z,75.47
